sensor_id;sensor_type;location;lat;lon;timestamp;P1;durP1;ratioP1;P2;durP2;ratioP2
20776;SDS011;10548;47.504;8.248;2022-08-21T00:00:13;29.37;;;8.80;;
20776;SDS011;10548;47.504;8.248;2022-08-21T00:02:50;52.80;;;10.00;;
20776;SDS011;10548;47.504;8.248;2022-08-21T00:05:23;59.20;;;11.60;;
20776;SDS011;10548;47.504;8.248;2022-08-21T00:07:52;65.47;;;11.60;;
20776;SDS011;10548;47.504;8.248;2022-08-21T00:10:20;45.90;;;9.40;;
20776;SDS011;10548;47.504;8.248;2022-08-21T00:12:47;164.77;;;14.43;;
20776;SDS011;10548;47.504;8.248;2022-08-21T00:15:16;21.03;;;8.03;;
20776;SDS011;10548;47.504;8.248;2022-08-21T00:17:47;28.63;;;8.80;;
20776;SDS011;10548;47.504;8.248;2022-08-21T00:20:15;34.77;;;8.33;;
20776;SDS011;10548;47.504;8.248;2022-08-21T00:22:43;16.50;;;8.70;;
20776;SDS011;10548;47.504;8.248;2022-08-21T00:25:12;15.33;;;9.90;;
20776;SDS011;10548;47.504;8.248;2022-08-21T00:27:40;9.00;;;6.83;;
20776;SDS011;10548;47.504;8.248;2022-08-21T00:30:13;7.60;;;6.60;;
20776;SDS011;10548;47.504;8.248;2022-08-21T00:32:49;7.93;;;5.50;;
20776;SDS011;10548;47.504;8.248;2022-08-21T00:35:17;6.70;;;5.60;;
20776;SDS011;10548;47.504;8.248;2022-08-21T00:37:45;6.23;;;4.50;;
20776;SDS011;10548;47.504;8.248;2022-08-21T00:40:15;12.60;;;7.93;;
20776;SDS011;10548;47.504;8.248;2022-08-21T00:42:44;9.83;;;7.87;;
20776;SDS011;10548;47.504;8.248;2022-08-21T00:45:19;6.13;;;5.53;;
20776;SDS011;10548;47.504;8.248;2022-08-21T00:47:48;5.23;;;4.73;;
20776;SDS011;10548;47.504;8.248;2022-08-21T00:50:17;7.63;;;5.50;;
20776;SDS011;10548;47.504;8.248;2022-08-21T00:52:47;9.10;;;6.90;;
20776;SDS011;10548;47.504;8.248;2022-08-21T00:55:18;11.90;;;8.87;;
20776;SDS011;10548;47.504;8.248;2022-08-21T00:57:50;10.50;;;8.00;;
20776;SDS011;10548;47.504;8.248;2022-08-21T01:00:22;10.80;;;7.50;;
20776;SDS011;10548;47.504;8.248;2022-08-21T01:02:56;14.30;;;9.57;;
20776;SDS011;10548;47.504;8.248;2022-08-21T01:05:25;10.27;;;8.17;;
20776;SDS011;10548;47.504;8.248;2022-08-21T01:07:54;9.97;;;8.00;;
20776;SDS011;10548;47.504;8.248;2022-08-21T01:10:23;11.03;;;7.57;;
20776;SDS011;10548;47.504;8.248;2022-08-21T01:12:51;8.50;;;7.57;;
20776;SDS011;10548;47.504;8.248;2022-08-21T01:15:19;29.83;;;11.37;;
20776;SDS011;10548;47.504;8.248;2022-08-21T01:17:49;31.33;;;14.37;;
20776;SDS011;10548;47.504;8.248;2022-08-21T01:20:16;19.87;;;13.60;;
20776;SDS011;10548;47.504;8.248;2022-08-21T01:22:43;19.10;;;14.37;;
20776;SDS011;10548;47.504;8.248;2022-08-21T01:25:12;16.80;;;11.57;;
20776;SDS011;10548;47.504;8.248;2022-08-21T01:27:41;15.90;;;10.63;;
20776;SDS011;10548;47.504;8.248;2022-08-21T01:30:13;13.03;;;8.93;;
20776;SDS011;10548;47.504;8.248;2022-08-21T01:32:43;11.27;;;7.10;;
20776;SDS011;10548;47.504;8.248;2022-08-21T01:35:11;9.80;;;6.63;;
20776;SDS011;10548;47.504;8.248;2022-08-21T01:37:38;7.77;;;6.77;;
20776;SDS011;10548;47.504;8.248;2022-08-21T01:40:07;6.90;;;6.20;;
20776;SDS011;10548;47.504;8.248;2022-08-21T01:42:35;9.77;;;5.30;;
20776;SDS011;10548;47.504;8.248;2022-08-21T01:45:03;4.43;;;4.00;;
20776;SDS011;10548;47.504;8.248;2022-08-21T01:47:31;4.27;;;3.87;;
20776;SDS011;10548;47.504;8.248;2022-08-21T01:49:59;5.40;;;4.20;;
20776;SDS011;10548;47.504;8.248;2022-08-21T01:52:26;12.00;;;3.43;;
20776;SDS011;10548;47.504;8.248;2022-08-21T01:54:53;5.30;;;4.80;;
20776;SDS011;10548;47.504;8.248;2022-08-21T01:57:21;17.33;;;5.10;;
20776;SDS011;10548;47.504;8.248;2022-08-21T01:59:51;7.00;;;6.27;;
20776;SDS011;10548;47.504;8.248;2022-08-21T02:02:19;7.43;;;6.50;;
20776;SDS011;10548;47.504;8.248;2022-08-21T02:04:46;11.67;;;6.70;;
20776;SDS011;10548;47.504;8.248;2022-08-21T02:07:13;7.93;;;5.47;;
20776;SDS011;10548;47.504;8.248;2022-08-21T02:09:41;6.40;;;4.53;;
20776;SDS011;10548;47.504;8.248;2022-08-21T02:12:09;8.20;;;3.63;;
20776;SDS011;10548;47.504;8.248;2022-08-21T02:14:37;4.33;;;3.40;;
20776;SDS011;10548;47.504;8.248;2022-08-21T02:17:04;4.60;;;4.07;;
20776;SDS011;10548;47.504;8.248;2022-08-21T02:19:35;9.53;;;6.27;;
20776;SDS011;10548;47.504;8.248;2022-08-21T02:22:07;6.77;;;5.60;;
20776;SDS011;10548;47.504;8.248;2022-08-21T02:24:36;9.33;;;5.60;;
20776;SDS011;10548;47.504;8.248;2022-08-21T02:27:19;9.13;;;6.80;;
20776;SDS011;10548;47.504;8.248;2022-08-21T02:29:52;10.97;;;8.40;;
20776;SDS011;10548;47.504;8.248;2022-08-21T02:32:21;13.17;;;10.60;;
20776;SDS011;10548;47.504;8.248;2022-08-21T02:34:48;14.93;;;9.43;;
20776;SDS011;10548;47.504;8.248;2022-08-21T02:37:16;17.93;;;10.10;;
20776;SDS011;10548;47.504;8.248;2022-08-21T02:39:43;12.50;;;9.87;;
20776;SDS011;10548;47.504;8.248;2022-08-21T02:42:10;20.30;;;12.40;;
20776;SDS011;10548;47.504;8.248;2022-08-21T02:44:37;20.73;;;12.37;;
20776;SDS011;10548;47.504;8.248;2022-08-21T02:47:04;25.73;;;14.20;;
20776;SDS011;10548;47.504;8.248;2022-08-21T02:49:31;19.97;;;11.83;;
20776;SDS011;10548;47.504;8.248;2022-08-21T02:51:58;21.70;;;11.73;;
20776;SDS011;10548;47.504;8.248;2022-08-21T02:54:25;18.83;;;11.70;;
20776;SDS011;10548;47.504;8.248;2022-08-21T02:56:52;20.63;;;12.67;;
20776;SDS011;10548;47.504;8.248;2022-08-21T02:59:19;19.90;;;11.50;;
20776;SDS011;10548;47.504;8.248;2022-08-21T03:01:47;18.07;;;10.63;;
20776;SDS011;10548;47.504;8.248;2022-08-21T03:04:14;15.87;;;9.83;;
20776;SDS011;10548;47.504;8.248;2022-08-21T03:06:41;24.87;;;11.83;;
20776;SDS011;10548;47.504;8.248;2022-08-21T03:09:09;18.40;;;10.00;;
20776;SDS011;10548;47.504;8.248;2022-08-21T03:11:36;16.20;;;9.63;;
20776;SDS011;10548;47.504;8.248;2022-08-21T03:14:03;22.50;;;9.30;;
20776;SDS011;10548;47.504;8.248;2022-08-21T03:16:31;14.90;;;9.50;;
20776;SDS011;10548;47.504;8.248;2022-08-21T03:19:01;14.63;;;8.07;;
20776;SDS011;10548;47.504;8.248;2022-08-21T03:21:28;14.93;;;9.30;;
20776;SDS011;10548;47.504;8.248;2022-08-21T03:23:55;17.13;;;10.17;;
20776;SDS011;10548;47.504;8.248;2022-08-21T03:26:22;8.53;;;6.90;;
20776;SDS011;10548;47.504;8.248;2022-08-21T03:28:52;11.67;;;7.80;;
20776;SDS011;10548;47.504;8.248;2022-08-21T03:31:19;10.63;;;8.00;;
20776;SDS011;10548;47.504;8.248;2022-08-21T03:33:47;12.73;;;8.33;;
20776;SDS011;10548;47.504;8.248;2022-08-21T03:36:15;18.77;;;10.20;;
20776;SDS011;10548;47.504;8.248;2022-08-21T03:38:42;23.70;;;10.03;;
20776;SDS011;10548;47.504;8.248;2022-08-21T03:41:09;16.93;;;10.33;;
20776;SDS011;10548;47.504;8.248;2022-08-21T03:43:36;18.43;;;10.33;;
20776;SDS011;10548;47.504;8.248;2022-08-21T03:46:05;14.67;;;9.80;;
20776;SDS011;10548;47.504;8.248;2022-08-21T03:48:33;12.80;;;8.67;;
20776;SDS011;10548;47.504;8.248;2022-08-21T03:51:02;14.93;;;9.83;;
20776;SDS011;10548;47.504;8.248;2022-08-21T03:53:29;14.43;;;9.60;;
20776;SDS011;10548;47.504;8.248;2022-08-21T03:55:57;19.20;;;9.80;;
20776;SDS011;10548;47.504;8.248;2022-08-21T03:58:25;18.70;;;10.80;;
20776;SDS011;10548;47.504;8.248;2022-08-21T04:00:55;18.67;;;9.17;;
20776;SDS011;10548;47.504;8.248;2022-08-21T04:03:24;51.60;;;11.07;;
20776;SDS011;10548;47.504;8.248;2022-08-21T04:05:52;36.27;;;10.77;;
20776;SDS011;10548;47.504;8.248;2022-08-21T04:08:19;36.00;;;12.50;;
20776;SDS011;10548;47.504;8.248;2022-08-21T04:10:47;27.60;;;9.33;;
20776;SDS011;10548;47.504;8.248;2022-08-21T04:13:16;19.87;;;8.10;;
20776;SDS011;10548;47.504;8.248;2022-08-21T04:15:43;16.60;;;8.83;;
20776;SDS011;10548;47.504;8.248;2022-08-21T04:18:10;16.07;;;8.70;;
20776;SDS011;10548;47.504;8.248;2022-08-21T04:20:38;15.57;;;8.60;;
20776;SDS011;10548;47.504;8.248;2022-08-21T04:23:10;9.77;;;6.60;;
20776;SDS011;10548;47.504;8.248;2022-08-21T04:25:49;16.97;;;8.57;;
20776;SDS011;10548;47.504;8.248;2022-08-21T04:28:17;10.07;;;6.87;;
20776;SDS011;10548;47.504;8.248;2022-08-21T04:30:44;9.70;;;7.17;;
20776;SDS011;10548;47.504;8.248;2022-08-21T04:33:11;7.03;;;5.83;;
20776;SDS011;10548;47.504;8.248;2022-08-21T04:35:38;12.93;;;5.30;;
20776;SDS011;10548;47.504;8.248;2022-08-21T04:38:05;9.13;;;6.03;;
20776;SDS011;10548;47.504;8.248;2022-08-21T04:40:32;6.23;;;5.10;;
20776;SDS011;10548;47.504;8.248;2022-08-21T04:43:04;10.33;;;6.93;;
20776;SDS011;10548;47.504;8.248;2022-08-21T04:45:39;14.30;;;8.00;;
20776;SDS011;10548;47.504;8.248;2022-08-21T04:48:12;17.40;;;8.63;;
20776;SDS011;10548;47.504;8.248;2022-08-21T04:50:50;14.03;;;7.27;;
20776;SDS011;10548;47.504;8.248;2022-08-21T04:53:41;10.57;;;6.87;;
20776;SDS011;10548;47.504;8.248;2022-08-21T04:56:15;15.10;;;6.70;;
20776;SDS011;10548;47.504;8.248;2022-08-21T04:59:15;14.00;;;6.83;;
20776;SDS011;10548;47.504;8.248;2022-08-21T05:01:48;15.87;;;7.47;;
20776;SDS011;10548;47.504;8.248;2022-08-21T05:04:17;13.07;;;6.97;;
20776;SDS011;10548;47.504;8.248;2022-08-21T05:06:48;12.67;;;6.97;;
20776;SDS011;10548;47.504;8.248;2022-08-21T05:09:17;15.37;;;7.20;;
20776;SDS011;10548;47.504;8.248;2022-08-21T05:11:45;18.93;;;8.00;;
20776;SDS011;10548;47.504;8.248;2022-08-21T05:14:13;17.33;;;8.50;;
20776;SDS011;10548;47.504;8.248;2022-08-21T05:16:40;15.63;;;7.53;;
20776;SDS011;10548;47.504;8.248;2022-08-21T05:19:08;9.13;;;6.13;;
20776;SDS011;10548;47.504;8.248;2022-08-21T05:21:35;9.30;;;6.37;;
20776;SDS011;10548;47.504;8.248;2022-08-21T05:24:06;7.67;;;5.57;;
20776;SDS011;10548;47.504;8.248;2022-08-21T05:26:33;11.70;;;6.37;;
20776;SDS011;10548;47.504;8.248;2022-08-21T05:29:11;7.17;;;4.90;;
20776;SDS011;10548;47.504;8.248;2022-08-21T05:31:41;7.77;;;6.23;;
20776;SDS011;10548;47.504;8.248;2022-08-21T05:34:09;9.53;;;6.80;;
20776;SDS011;10548;47.504;8.248;2022-08-21T05:36:36;12.47;;;7.00;;
20776;SDS011;10548;47.504;8.248;2022-08-21T05:39:03;10.13;;;6.87;;
20776;SDS011;10548;47.504;8.248;2022-08-21T05:41:30;12.90;;;6.63;;
20776;SDS011;10548;47.504;8.248;2022-08-21T05:43:59;21.33;;;8.93;;
20776;SDS011;10548;47.504;8.248;2022-08-21T05:46:27;19.03;;;8.23;;
20776;SDS011;10548;47.504;8.248;2022-08-21T05:48:54;13.97;;;7.00;;
20776;SDS011;10548;47.504;8.248;2022-08-21T05:51:21;16.70;;;8.40;;
20776;SDS011;10548;47.504;8.248;2022-08-21T05:53:48;16.33;;;8.63;;
20776;SDS011;10548;47.504;8.248;2022-08-21T05:56:15;21.00;;;10.30;;
20776;SDS011;10548;47.504;8.248;2022-08-21T05:58:42;17.57;;;7.50;;
20776;SDS011;10548;47.504;8.248;2022-08-21T06:01:10;17.63;;;7.43;;
20776;SDS011;10548;47.504;8.248;2022-08-21T06:03:38;14.83;;;7.27;;
20776;SDS011;10548;47.504;8.248;2022-08-21T06:06:07;19.00;;;7.73;;
20776;SDS011;10548;47.504;8.248;2022-08-21T06:08:35;20.00;;;9.20;;
20776;SDS011;10548;47.504;8.248;2022-08-21T06:11:03;23.13;;;8.90;;
20776;SDS011;10548;47.504;8.248;2022-08-21T06:13:31;19.23;;;8.33;;
20776;SDS011;10548;47.504;8.248;2022-08-21T06:16:01;18.43;;;8.60;;
20776;SDS011;10548;47.504;8.248;2022-08-21T06:18:41;19.40;;;7.87;;
20776;SDS011;10548;47.504;8.248;2022-08-21T06:21:10;15.53;;;7.47;;
20776;SDS011;10548;47.504;8.248;2022-08-21T06:23:37;13.43;;;7.90;;
20776;SDS011;10548;47.504;8.248;2022-08-21T06:26:05;16.47;;;7.87;;
20776;SDS011;10548;47.504;8.248;2022-08-21T06:28:34;12.93;;;6.43;;
20776;SDS011;10548;47.504;8.248;2022-08-21T06:31:16;14.17;;;6.93;;
20776;SDS011;10548;47.504;8.248;2022-08-21T06:33:48;20.47;;;8.93;;
20776;SDS011;10548;47.504;8.248;2022-08-21T06:36:16;15.70;;;7.97;;
20776;SDS011;10548;47.504;8.248;2022-08-21T06:38:44;13.47;;;6.30;;
20776;SDS011;10548;47.504;8.248;2022-08-21T06:41:16;10.40;;;5.97;;
20776;SDS011;10548;47.504;8.248;2022-08-21T06:43:52;10.13;;;6.20;;
20776;SDS011;10548;47.504;8.248;2022-08-21T06:46:20;8.10;;;5.47;;
20776;SDS011;10548;47.504;8.248;2022-08-21T06:48:47;12.03;;;5.83;;
20776;SDS011;10548;47.504;8.248;2022-08-21T06:51:14;9.27;;;5.87;;
20776;SDS011;10548;47.504;8.248;2022-08-21T06:53:41;11.47;;;6.37;;
20776;SDS011;10548;47.504;8.248;2022-08-21T06:56:08;10.50;;;5.73;;
20776;SDS011;10548;47.504;8.248;2022-08-21T06:58:36;11.37;;;5.63;;
20776;SDS011;10548;47.504;8.248;2022-08-21T07:01:03;12.23;;;6.70;;
20776;SDS011;10548;47.504;8.248;2022-08-21T07:03:33;9.03;;;5.10;;
20776;SDS011;10548;47.504;8.248;2022-08-21T07:06:06;5.17;;;4.37;;
20776;SDS011;10548;47.504;8.248;2022-08-21T07:08:35;8.83;;;4.50;;
20776;SDS011;10548;47.504;8.248;2022-08-21T07:11:04;8.90;;;4.60;;
20776;SDS011;10548;47.504;8.248;2022-08-21T07:13:37;6.07;;;4.50;;
20776;SDS011;10548;47.504;8.248;2022-08-21T07:16:04;9.03;;;5.60;;
20776;SDS011;10548;47.504;8.248;2022-08-21T07:18:31;10.40;;;5.83;;
20776;SDS011;10548;47.504;8.248;2022-08-21T07:21:00;6.60;;;3.93;;
20776;SDS011;10548;47.504;8.248;2022-08-21T07:23:30;6.57;;;5.00;;
20776;SDS011;10548;47.504;8.248;2022-08-21T07:25:59;5.87;;;4.30;;
20776;SDS011;10548;47.504;8.248;2022-08-21T07:28:27;8.93;;;5.20;;
20776;SDS011;10548;47.504;8.248;2022-08-21T07:30:56;8.93;;;5.77;;
20776;SDS011;10548;47.504;8.248;2022-08-21T07:33:25;8.23;;;4.73;;
20776;SDS011;10548;47.504;8.248;2022-08-21T07:35:54;9.63;;;5.53;;
20776;SDS011;10548;47.504;8.248;2022-08-21T07:38:22;9.00;;;5.07;;
20776;SDS011;10548;47.504;8.248;2022-08-21T07:40:50;11.23;;;5.10;;
20776;SDS011;10548;47.504;8.248;2022-08-21T07:43:19;7.47;;;4.10;;
20776;SDS011;10548;47.504;8.248;2022-08-21T07:45:46;6.60;;;4.53;;
20776;SDS011;10548;47.504;8.248;2022-08-21T07:48:13;7.40;;;4.80;;
20776;SDS011;10548;47.504;8.248;2022-08-21T07:50:41;6.23;;;4.60;;
20776;SDS011;10548;47.504;8.248;2022-08-21T07:53:08;6.13;;;4.63;;
20776;SDS011;10548;47.504;8.248;2022-08-21T07:55:36;7.37;;;5.07;;
20776;SDS011;10548;47.504;8.248;2022-08-21T07:58:03;6.57;;;4.47;;
20776;SDS011;10548;47.504;8.248;2022-08-21T08:00:30;7.77;;;4.70;;
20776;SDS011;10548;47.504;8.248;2022-08-21T08:02:57;6.87;;;5.40;;
20776;SDS011;10548;47.504;8.248;2022-08-21T08:05:26;6.30;;;5.47;;
20776;SDS011;10548;47.504;8.248;2022-08-21T08:07:55;13.77;;;6.17;;
20776;SDS011;10548;47.504;8.248;2022-08-21T08:10:22;10.37;;;5.77;;
20776;SDS011;10548;47.504;8.248;2022-08-21T08:12:50;6.90;;;5.67;;
20776;SDS011;10548;47.504;8.248;2022-08-21T08:15:19;5.60;;;4.73;;
20776;SDS011;10548;47.504;8.248;2022-08-21T08:17:53;6.23;;;4.53;;
20776;SDS011;10548;47.504;8.248;2022-08-21T08:20:21;13.03;;;5.20;;
20776;SDS011;10548;47.504;8.248;2022-08-21T08:22:49;8.57;;;5.20;;
20776;SDS011;10548;47.504;8.248;2022-08-21T08:25:17;5.40;;;4.83;;
20776;SDS011;10548;47.504;8.248;2022-08-21T08:27:44;9.33;;;4.70;;
20776;SDS011;10548;47.504;8.248;2022-08-21T08:30:12;7.13;;;5.50;;
20776;SDS011;10548;47.504;8.248;2022-08-21T08:32:41;5.47;;;4.40;;
20776;SDS011;10548;47.504;8.248;2022-08-21T08:35:09;6.70;;;4.87;;
20776;SDS011;10548;47.504;8.248;2022-08-21T08:37:37;5.40;;;4.90;;
20776;SDS011;10548;47.504;8.248;2022-08-21T08:40:11;10.70;;;5.13;;
20776;SDS011;10548;47.504;8.248;2022-08-21T08:42:44;5.67;;;4.30;;
20776;SDS011;10548;47.504;8.248;2022-08-21T08:45:15;7.03;;;4.53;;
20776;SDS011;10548;47.504;8.248;2022-08-21T08:47:50;5.73;;;4.47;;
20776;SDS011;10548;47.504;8.248;2022-08-21T08:53:17;5.63;;;5.00;;
20776;SDS011;10548;47.504;8.248;2022-08-21T08:55:51;7.60;;;4.40;;
20776;SDS011;10548;47.504;8.248;2022-08-21T08:58:27;5.97;;;4.77;;
20776;SDS011;10548;47.504;8.248;2022-08-21T09:00:59;4.23;;;3.50;;
20776;SDS011;10548;47.504;8.248;2022-08-21T09:03:27;7.60;;;4.90;;
20776;SDS011;10548;47.504;8.248;2022-08-21T09:09:17;5.03;;;4.33;;
20776;SDS011;10548;47.504;8.248;2022-08-21T09:11:57;5.20;;;4.57;;
20776;SDS011;10548;47.504;8.248;2022-08-21T09:17:59;4.97;;;4.00;;
20776;SDS011;10548;47.504;8.248;2022-08-21T09:27:49;4.93;;;3.20;;
20776;SDS011;10548;47.504;8.248;2022-08-21T09:30:18;4.40;;;3.97;;
20776;SDS011;10548;47.504;8.248;2022-08-21T09:32:50;5.97;;;4.10;;
20776;SDS011;10548;47.504;8.248;2022-08-21T09:35:19;7.77;;;3.70;;
20776;SDS011;10548;47.504;8.248;2022-08-21T09:37:58;4.07;;;3.40;;
20776;SDS011;10548;47.504;8.248;2022-08-21T09:40:36;4.57;;;3.87;;
20776;SDS011;10548;47.504;8.248;2022-08-21T09:46:02;5.83;;;3.83;;
20776;SDS011;10548;47.504;8.248;2022-08-21T09:48:49;4.67;;;3.70;;
20776;SDS011;10548;47.504;8.248;2022-08-21T09:51:19;4.53;;;3.63;;
20776;SDS011;10548;47.504;8.248;2022-08-21T09:53:51;4.23;;;3.67;;
20776;SDS011;10548;47.504;8.248;2022-08-21T09:56:26;3.87;;;3.33;;
20776;SDS011;10548;47.504;8.248;2022-08-21T09:59:18;3.47;;;3.03;;
20776;SDS011;10548;47.504;8.248;2022-08-21T10:02:21;5.83;;;3.50;;
20776;SDS011;10548;47.504;8.248;2022-08-21T10:05:01;4.00;;;3.43;;
20776;SDS011;10548;47.504;8.248;2022-08-21T10:07:42;8.40;;;3.43;;
20776;SDS011;10548;47.504;8.248;2022-08-21T10:10:17;6.40;;;3.20;;
20776;SDS011;10548;47.504;8.248;2022-08-21T10:13:32;4.67;;;3.00;;
20776;SDS011;10548;47.504;8.248;2022-08-21T10:19:07;4.17;;;3.07;;
20776;SDS011;10548;47.504;8.248;2022-08-21T10:22:41;6.30;;;2.90;;
20776;SDS011;10548;47.504;8.248;2022-08-21T10:25:33;4.47;;;2.80;;
20776;SDS011;10548;47.504;8.248;2022-08-21T10:31:20;7.93;;;2.97;;
20776;SDS011;10548;47.504;8.248;2022-08-21T10:34:50;2.67;;;2.37;;
20776;SDS011;10548;47.504;8.248;2022-08-21T10:40:29;3.93;;;2.80;;
20776;SDS011;10548;47.504;8.248;2022-08-21T10:46:50;4.30;;;2.70;;
20776;SDS011;10548;47.504;8.248;2022-08-21T10:52:43;4.73;;;2.80;;
20776;SDS011;10548;47.504;8.248;2022-08-21T10:55:41;4.27;;;2.03;;
20776;SDS011;10548;47.504;8.248;2022-08-21T10:58:19;5.93;;;2.53;;
20776;SDS011;10548;47.504;8.248;2022-08-21T11:05:14;2.27;;;1.40;;
20776;SDS011;10548;47.504;8.248;2022-08-21T11:08:35;2.47;;;1.40;;
20776;SDS011;10548;47.504;8.248;2022-08-21T11:11:03;2.70;;;1.40;;
20776;SDS011;10548;47.504;8.248;2022-08-21T11:13:41;4.07;;;1.53;;
20776;SDS011;10548;47.504;8.248;2022-08-21T11:19:48;3.60;;;1.63;;
20776;SDS011;10548;47.504;8.248;2022-08-21T11:22:52;3.90;;;1.83;;
20776;SDS011;10548;47.504;8.248;2022-08-21T11:25:36;4.53;;;1.70;;
20776;SDS011;10548;47.504;8.248;2022-08-21T11:28:13;9.93;;;2.10;;
20776;SDS011;10548;47.504;8.248;2022-08-21T11:33:53;4.03;;;1.50;;
20776;SDS011;10548;47.504;8.248;2022-08-21T11:36:36;3.60;;;1.33;;
20776;SDS011;10548;47.504;8.248;2022-08-21T11:39:25;3.23;;;1.47;;
20776;SDS011;10548;47.504;8.248;2022-08-21T11:42:24;6.93;;;1.60;;
20776;SDS011;10548;47.504;8.248;2022-08-21T11:51:41;2.27;;;1.30;;
20776;SDS011;10548;47.504;8.248;2022-08-21T11:54:47;1.70;;;1.30;;
20776;SDS011;10548;47.504;8.248;2022-08-21T11:57:23;3.10;;;1.37;;
20776;SDS011;10548;47.504;8.248;2022-08-21T11:59:58;3.10;;;1.40;;
20776;SDS011;10548;47.504;8.248;2022-08-21T12:02:48;3.40;;;1.40;;
20776;SDS011;10548;47.504;8.248;2022-08-21T12:05:31;6.73;;;1.43;;
20776;SDS011;10548;47.504;8.248;2022-08-21T12:14:18;2.40;;;1.30;;
20776;SDS011;10548;47.504;8.248;2022-08-21T12:16:47;3.80;;;1.43;;
20776;SDS011;10548;47.504;8.248;2022-08-21T12:19:37;2.17;;;1.23;;
20776;SDS011;10548;47.504;8.248;2022-08-21T12:22:09;2.17;;;1.17;;
20776;SDS011;10548;47.504;8.248;2022-08-21T12:24:40;2.50;;;1.40;;
20776;SDS011;10548;47.504;8.248;2022-08-21T12:27:22;2.53;;;1.10;;
20776;SDS011;10548;47.504;8.248;2022-08-21T12:30:00;2.20;;;1.00;;
20776;SDS011;10548;47.504;8.248;2022-08-21T12:32:46;3.80;;;0.90;;
20776;SDS011;10548;47.504;8.248;2022-08-21T12:35:26;1.63;;;0.90;;
20776;SDS011;10548;47.504;8.248;2022-08-21T12:38:18;1.43;;;0.70;;
20776;SDS011;10548;47.504;8.248;2022-08-21T12:40:59;1.93;;;0.80;;
20776;SDS011;10548;47.504;8.248;2022-08-21T12:43:33;0.60;;;0.60;;
20776;SDS011;10548;47.504;8.248;2022-08-21T12:46:04;1.20;;;0.73;;
20776;SDS011;10548;47.504;8.248;2022-08-21T12:48:33;0.83;;;0.60;;
20776;SDS011;10548;47.504;8.248;2022-08-21T12:51:24;2.47;;;1.00;;
20776;SDS011;10548;47.504;8.248;2022-08-21T12:53:56;1.83;;;0.83;;
20776;SDS011;10548;47.504;8.248;2022-08-21T12:56:27;1.13;;;0.70;;
20776;SDS011;10548;47.504;8.248;2022-08-21T12:59:00;1.57;;;0.70;;
20776;SDS011;10548;47.504;8.248;2022-08-21T13:01:35;1.27;;;0.80;;
20776;SDS011;10548;47.504;8.248;2022-08-21T13:04:10;0.83;;;0.80;;
20776;SDS011;10548;47.504;8.248;2022-08-21T13:06:46;1.73;;;0.70;;
20776;SDS011;10548;47.504;8.248;2022-08-21T13:09:16;1.50;;;0.80;;
20776;SDS011;10548;47.504;8.248;2022-08-21T13:11:50;3.07;;;1.00;;
20776;SDS011;10548;47.504;8.248;2022-08-21T13:14:37;1.13;;;0.80;;
20776;SDS011;10548;47.504;8.248;2022-08-21T13:17:11;2.80;;;1.10;;
20776;SDS011;10548;47.504;8.248;2022-08-21T13:19:57;3.37;;;0.80;;
20776;SDS011;10548;47.504;8.248;2022-08-21T13:22:39;3.03;;;0.90;;
20776;SDS011;10548;47.504;8.248;2022-08-21T13:25:12;2.87;;;1.00;;
20776;SDS011;10548;47.504;8.248;2022-08-21T13:27:42;3.10;;;1.13;;
20776;SDS011;10548;47.504;8.248;2022-08-21T13:30:18;2.00;;;1.10;;
20776;SDS011;10548;47.504;8.248;2022-08-21T13:32:51;2.20;;;1.00;;
20776;SDS011;10548;47.504;8.248;2022-08-21T13:35:26;1.80;;;1.20;;
20776;SDS011;10548;47.504;8.248;2022-08-21T13:37:56;3.73;;;1.33;;
20776;SDS011;10548;47.504;8.248;2022-08-21T13:40:41;2.70;;;1.10;;
20776;SDS011;10548;47.504;8.248;2022-08-21T13:43:18;4.70;;;1.30;;
20776;SDS011;10548;47.504;8.248;2022-08-21T13:45:49;3.27;;;1.17;;
20776;SDS011;10548;47.504;8.248;2022-08-21T13:48:19;2.73;;;1.20;;
20776;SDS011;10548;47.504;8.248;2022-08-21T13:50:48;2.73;;;1.20;;
20776;SDS011;10548;47.504;8.248;2022-08-21T13:53:49;2.17;;;1.20;;
20776;SDS011;10548;47.504;8.248;2022-08-21T13:59:11;3.47;;;1.10;;
20776;SDS011;10548;47.504;8.248;2022-08-21T14:01:51;2.07;;;1.10;;
20776;SDS011;10548;47.504;8.248;2022-08-21T14:04:35;3.47;;;1.50;;
20776;SDS011;10548;47.504;8.248;2022-08-21T14:07:26;3.97;;;1.23;;
20776;SDS011;10548;47.504;8.248;2022-08-21T14:10:21;1.90;;;1.00;;
20776;SDS011;10548;47.504;8.248;2022-08-21T14:12:52;5.17;;;1.47;;
20776;SDS011;10548;47.504;8.248;2022-08-21T14:15:27;3.63;;;1.20;;
20776;SDS011;10548;47.504;8.248;2022-08-21T14:18:07;2.20;;;1.00;;
20776;SDS011;10548;47.504;8.248;2022-08-21T14:20:44;3.03;;;1.33;;
20776;SDS011;10548;47.504;8.248;2022-08-21T14:23:23;2.77;;;1.23;;
20776;SDS011;10548;47.504;8.248;2022-08-21T14:25:51;2.83;;;1.20;;
20776;SDS011;10548;47.504;8.248;2022-08-21T14:28:26;3.97;;;1.50;;
20776;SDS011;10548;47.504;8.248;2022-08-21T14:31:10;2.43;;;1.13;;
20776;SDS011;10548;47.504;8.248;2022-08-21T14:33:40;1.83;;;1.10;;
20776;SDS011;10548;47.504;8.248;2022-08-21T14:36:07;4.87;;;1.40;;
20776;SDS011;10548;47.504;8.248;2022-08-21T14:38:35;1.90;;;1.10;;
20776;SDS011;10548;47.504;8.248;2022-08-21T14:41:07;3.00;;;1.27;;
20776;SDS011;10548;47.504;8.248;2022-08-21T14:43:46;3.50;;;1.30;;
20776;SDS011;10548;47.504;8.248;2022-08-21T14:46:33;2.17;;;1.20;;
20776;SDS011;10548;47.504;8.248;2022-08-21T14:49:07;1.93;;;1.20;;
20776;SDS011;10548;47.504;8.248;2022-08-21T14:51:35;2.73;;;1.63;;
20776;SDS011;10548;47.504;8.248;2022-08-21T14:54:13;3.07;;;1.37;;
20776;SDS011;10548;47.504;8.248;2022-08-21T14:56:40;3.47;;;1.20;;
20776;SDS011;10548;47.504;8.248;2022-08-21T14:59:07;5.67;;;1.57;;
20776;SDS011;10548;47.504;8.248;2022-08-21T15:01:36;2.23;;;1.30;;
20776;SDS011;10548;47.504;8.248;2022-08-21T15:04:04;4.82;;;1.30;;
20776;SDS011;10548;47.504;8.248;2022-08-21T15:06:31;2.47;;;1.20;;
20776;SDS011;10548;47.504;8.248;2022-08-21T15:08:58;2.93;;;1.33;;
20776;SDS011;10548;47.504;8.248;2022-08-21T15:11:25;3.93;;;1.70;;
20776;SDS011;10548;47.504;8.248;2022-08-21T15:14:10;3.03;;;1.30;;
20776;SDS011;10548;47.504;8.248;2022-08-21T15:16:45;2.45;;;1.23;;
20776;SDS011;10548;47.504;8.248;2022-08-21T15:19:12;2.80;;;1.07;;
20776;SDS011;10548;47.504;8.248;2022-08-21T15:21:39;3.08;;;1.25;;
20776;SDS011;10548;47.504;8.248;2022-08-21T15:24:06;2.75;;;1.20;;
20776;SDS011;10548;47.504;8.248;2022-08-21T15:26:33;4.68;;;1.30;;
20776;SDS011;10548;47.504;8.248;2022-08-21T15:29:02;4.32;;;1.50;;
20776;SDS011;10548;47.504;8.248;2022-08-21T15:31:32;2.53;;;1.40;;
20776;SDS011;10548;47.504;8.248;2022-08-21T15:33:59;2.55;;;1.30;;
20776;SDS011;10548;47.504;8.248;2022-08-21T15:36:26;2.80;;;1.33;;
20776;SDS011;10548;47.504;8.248;2022-08-21T15:38:53;2.15;;;1.30;;
20776;SDS011;10548;47.504;8.248;2022-08-21T15:41:20;6.10;;;1.50;;
20776;SDS011;10548;47.504;8.248;2022-08-21T15:43:48;4.00;;;1.50;;
20776;SDS011;10548;47.504;8.248;2022-08-21T15:46:18;6.22;;;1.10;;
20776;SDS011;10548;47.504;8.248;2022-08-21T15:48:46;2.72;;;1.30;;
20776;SDS011;10548;47.504;8.248;2022-08-21T15:51:14;5.55;;;1.33;;
20776;SDS011;10548;47.504;8.248;2022-08-21T15:53:43;3.13;;;1.60;;
20776;SDS011;10548;47.504;8.248;2022-08-21T15:56:12;3.80;;;1.40;;
20776;SDS011;10548;47.504;8.248;2022-08-21T15:58:53;3.05;;;1.45;;
20776;SDS011;10548;47.504;8.248;2022-08-21T16:01:27;5.82;;;1.23;;
20776;SDS011;10548;47.504;8.248;2022-08-21T16:04:09;2.33;;;1.30;;
20776;SDS011;10548;47.504;8.248;2022-08-21T16:06:47;6.93;;;1.60;;
20776;SDS011;10548;47.504;8.248;2022-08-21T16:09:21;1.40;;;0.95;;
20776;SDS011;10548;47.504;8.248;2022-08-21T16:11:48;6.15;;;1.75;;
20776;SDS011;10548;47.504;8.248;2022-08-21T16:14:16;2.08;;;1.13;;